sensor_id;sensor_type;location;lat;lon;timestamp;pressure;altitude;pressure_sealevel;temperature;humidity
74893;BME280;63446;56.272;43.922;2023-03-16T00:00:02;100942.09;;;7.28;52.99
74893;BME280;63446;56.272;43.922;2023-03-16T00:02:30;100945.75;;;7.27;52.87
74893;BME280;63446;56.272;43.922;2023-03-16T00:04:56;100940.72;;;7.25;52.83
74893;BME280;63446;56.272;43.922;2023-03-16T00:07:22;100946.22;;;7.24;52.91
74893;BME280;63446;56.272;43.922;2023-03-16T00:09:47;100951.47;;;7.24;52.98
74893;BME280;63446;56.272;43.922;2023-03-16T00:12:15;100954.66;;;7.26;52.96
74893;BME280;63446;56.272;43.922;2023-03-16T00:14:43;100952.03;;;7.26;52.73
74893;BME280;63446;56.272;43.922;2023-03-16T00:17:11;100946.56;;;7.27;52.78
74893;BME280;63446;56.272;43.922;2023-03-16T00:19:53;100943.69;;;7.29;52.77
74893;BME280;63446;56.272;43.922;2023-03-16T00:22:23;100946.31;;;7.29;52.76
74893;BME280;63446;56.272;43.922;2023-03-16T00:24:50;100941.06;;;7.29;52.64
74893;BME280;63446;56.272;43.922;2023-03-16T00:27:18;100953.97;;;7.30;52.70
74893;BME280;63446;56.272;43.922;2023-03-16T00:29:45;100946.09;;;7.30;52.68
74893;BME280;63446;56.272;43.922;2023-03-16T00:32:16;100947.09;;;7.29;52.72
74893;BME280;63446;56.272;43.922;2023-03-16T00:34:44;100953.41;;;7.28;52.58
74893;BME280;63446;56.272;43.922;2023-03-16T00:37:11;100958.66;;;7.28;52.58
74893;BME280;63446;56.272;43.922;2023-03-16T00:39:42;100953.66;;;7.27;52.53
74893;BME280;63446;56.272;43.922;2023-03-16T00:42:13;100949.41;;;7.26;52.40
74893;BME280;63446;56.272;43.922;2023-03-16T00:44:40;100954.91;;;7.24;52.54
74893;BME280;63446;56.272;43.922;2023-03-16T00:47:09;100922.13;;;7.15;52.51
74893;BME280;63446;56.272;43.922;2023-03-16T00:49:39;100945.88;;;7.20;52.50
74893;BME280;63446;56.272;43.922;2023-03-16T00:52:09;100929.53;;;7.18;52.53
74893;BME280;63446;56.272;43.922;2023-03-16T00:54:43;100928.97;;;7.16;52.36
74893;BME280;63446;56.272;43.922;2023-03-16T00:57:15;100928.88;;;7.11;52.37
74893;BME280;63446;56.272;43.922;2023-03-16T00:59:44;100936.19;;;7.09;52.63
74893;BME280;63446;56.272;43.922;2023-03-16T01:02:11;100935.03;;;7.05;52.36
74893;BME280;63446;56.272;43.922;2023-03-16T01:04:37;100945.56;;;7.05;52.48
74893;BME280;63446;56.272;43.922;2023-03-16T01:07:06;100947.38;;;7.04;52.46
74893;BME280;63446;56.272;43.922;2023-03-16T01:09:32;100936.28;;;7.02;52.49
74893;BME280;63446;56.272;43.922;2023-03-16T01:12:06;100943.97;;;7.04;52.46
74893;BME280;63446;56.272;43.922;2023-03-16T01:14:34;100940.53;;;7.03;52.35
74893;BME280;63446;56.272;43.922;2023-03-16T01:17:03;100940.31;;;7.05;52.45
74893;BME280;63446;56.272;43.922;2023-03-16T01:19:31;100937.66;;;7.05;52.44
74893;BME280;63446;56.272;43.922;2023-03-16T01:22:01;100939.25;;;7.06;52.50
74893;BME280;63446;56.272;43.922;2023-03-16T01:24:29;100943.28;;;7.08;52.32
74893;BME280;63446;56.272;43.922;2023-03-16T01:26:55;100937.22;;;7.08;52.43
74893;BME280;63446;56.272;43.922;2023-03-16T01:29:21;100934.59;;;7.08;52.46
74893;BME280;63446;56.272;43.922;2023-03-16T01:31:48;100931.50;;;7.11;52.46
74893;BME280;63446;56.272;43.922;2023-03-16T01:34:15;100938.34;;;7.12;52.37
74893;BME280;63446;56.272;43.922;2023-03-16T01:36:45;100936.53;;;7.13;52.22
74893;BME280;63446;56.272;43.922;2023-03-16T01:39:12;100929.88;;;7.10;52.27
74893;BME280;63446;56.272;43.922;2023-03-16T01:41:44;100926.13;;;7.06;52.35
74893;BME280;63446;56.272;43.922;2023-03-16T01:44:19;100926.25;;;6.99;52.33
74893;BME280;63446;56.272;43.922;2023-03-16T01:46:47;100934.47;;;6.91;52.57
74893;BME280;63446;56.272;43.922;2023-03-16T01:49:30;100934.63;;;6.84;52.60
74893;BME280;63446;56.272;43.922;2023-03-16T01:52:09;100932.91;;;6.78;52.68
74893;BME280;63446;56.272;43.922;2023-03-16T01:54:51;100931.50;;;6.76;52.70
74893;BME280;63446;56.272;43.922;2023-03-16T01:57:25;100932.19;;;6.71;52.71
74893;BME280;63446;56.272;43.922;2023-03-16T02:00:11;100928.09;;;6.64;52.78
74893;BME280;63446;56.272;43.922;2023-03-16T02:02:57;100930.25;;;6.55;52.92
74893;BME280;63446;56.272;43.922;2023-03-16T02:06:07;100929.56;;;6.48;53.00
74893;BME280;63446;56.272;43.922;2023-03-16T02:08:36;100930.59;;;6.47;52.96
74893;BME280;63446;56.272;43.922;2023-03-16T02:11:04;100936.41;;;6.49;53.04
74893;BME280;63446;56.272;43.922;2023-03-16T02:13:41;100934.94;;;6.53;53.03
74893;BME280;63446;56.272;43.922;2023-03-16T02:16:08;100930.81;;;6.57;52.88
74893;BME280;63446;56.272;43.922;2023-03-16T02:18:36;100917.25;;;6.60;52.88
74893;BME280;63446;56.272;43.922;2023-03-16T02:21:08;100921.00;;;6.64;52.91
74893;BME280;63446;56.272;43.922;2023-03-16T02:23:37;100918.97;;;6.66;52.72
74893;BME280;63446;56.272;43.922;2023-03-16T02:26:14;100909.59;;;6.70;52.66
74893;BME280;63446;56.272;43.922;2023-03-16T02:31:34;100904.09;;;6.72;52.57
74893;BME280;63446;56.272;43.922;2023-03-16T02:34:02;100915.19;;;6.74;52.62
74893;BME280;63446;56.272;43.922;2023-03-16T02:36:29;100922.84;;;6.75;52.62
74893;BME280;63446;56.272;43.922;2023-03-16T02:38:56;100914.16;;;6.75;52.55
74893;BME280;63446;56.272;43.922;2023-03-16T02:41:23;100910.28;;;6.77;52.50
74893;BME280;63446;56.272;43.922;2023-03-16T02:44:15;100907.41;;;6.79;52.52
74893;BME280;63446;56.272;43.922;2023-03-16T02:46:43;100922.97;;;6.80;52.42
74893;BME280;63446;56.272;43.922;2023-03-16T02:49:27;100914.84;;;6.82;52.39
74893;BME280;63446;56.272;43.922;2023-03-16T02:51:54;100905.94;;;6.83;52.33
74893;BME280;63446;56.272;43.922;2023-03-16T02:54:23;100904.88;;;6.84;52.24
74893;BME280;63446;56.272;43.922;2023-03-16T02:56:50;100905.94;;;6.83;52.30
74893;BME280;63446;56.272;43.922;2023-03-16T02:59:16;100915.97;;;6.86;52.27
74893;BME280;63446;56.272;43.922;2023-03-16T03:01:42;100910.47;;;6.88;52.07
74893;BME280;63446;56.272;43.922;2023-03-16T03:04:09;100905.22;;;6.88;52.17
74893;BME280;63446;56.272;43.922;2023-03-16T03:06:34;100903.19;;;6.90;52.20
74893;BME280;63446;56.272;43.922;2023-03-16T03:09:01;100893.22;;;6.92;52.24
74893;BME280;63446;56.272;43.922;2023-03-16T03:11:29;100898.28;;;6.93;52.12
74893;BME280;63446;56.272;43.922;2023-03-16T03:13:55;100898.03;;;6.95;52.22
74893;BME280;63446;56.272;43.922;2023-03-16T03:16:24;100896.78;;;6.97;52.14
74893;BME280;63446;56.272;43.922;2023-03-16T03:18:50;100898.63;;;6.97;52.23
74893;BME280;63446;56.272;43.922;2023-03-16T03:21:18;100895.19;;;6.96;52.26
74893;BME280;63446;56.272;43.922;2023-03-16T03:23:44;100899.41;;;6.97;52.03
74893;BME280;63446;56.272;43.922;2023-03-16T03:26:13;100899.66;;;6.96;52.17
74893;BME280;63446;56.272;43.922;2023-03-16T03:28:41;100885.84;;;6.89;52.17
74893;BME280;63446;56.272;43.922;2023-03-16T03:31:15;100892.22;;;6.93;52.18
74893;BME280;63446;56.272;43.922;2023-03-16T03:33:43;100885.94;;;6.94;52.26
74893;BME280;63446;56.272;43.922;2023-03-16T03:36:09;100890.59;;;6.92;52.40
74893;BME280;63446;56.272;43.922;2023-03-16T03:38:36;100873.38;;;6.84;52.33
74893;BME280;63446;56.272;43.922;2023-03-16T03:41:04;100892.22;;;6.93;52.40
74893;BME280;63446;56.272;43.922;2023-03-16T03:43:35;100878.97;;;6.88;52.32
74893;BME280;63446;56.272;43.922;2023-03-16T03:46:01;100874.75;;;6.87;52.35
74893;BME280;63446;56.272;43.922;2023-03-16T03:48:30;100871.78;;;6.83;52.43
74893;BME280;63446;56.272;43.922;2023-03-16T03:50:57;100866.75;;;6.81;52.44
74893;BME280;63446;56.272;43.922;2023-03-16T03:53:41;100863.34;;;6.81;52.29
74893;BME280;63446;56.272;43.922;2023-03-16T03:56:27;100872.81;;;6.82;52.44
74893;BME280;63446;56.272;43.922;2023-03-16T03:58:53;100861.06;;;6.84;52.32
74893;BME280;63446;56.272;43.922;2023-03-16T04:01:31;100861.59;;;6.87;52.37
74893;BME280;63446;56.272;43.922;2023-03-16T04:03:57;100864.81;;;6.89;52.35
74893;BME280;63446;56.272;43.922;2023-03-16T04:06:24;100860.34;;;6.89;52.37
74893;BME280;63446;56.272;43.922;2023-03-16T04:08:50;100854.41;;;6.94;52.40
74893;BME280;63446;56.272;43.922;2023-03-16T04:11:21;100852.91;;;6.98;52.33
74893;BME280;63446;56.272;43.922;2023-03-16T04:13:50;100852.44;;;7.01;52.44
74893;BME280;63446;56.272;43.922;2023-03-16T04:16:19;100851.75;;;7.05;52.29
74893;BME280;63446;56.272;43.922;2023-03-16T04:18:48;100850.50;;;7.08;52.32
74893;BME280;63446;56.272;43.922;2023-03-16T04:21:16;100857.91;;;7.11;52.16
74893;BME280;63446;56.272;43.922;2023-03-16T04:23:44;100853.16;;;7.25;52.21
74893;BME280;63446;56.272;43.922;2023-03-16T04:26:11;100847.84;;;7.37;52.07
74893;BME280;63446;56.272;43.922;2023-03-16T04:28:38;100840.97;;;7.47;51.84
74893;BME280;63446;56.272;43.922;2023-03-16T04:31:08;100832.22;;;7.58;51.69
74893;BME280;63446;56.272;43.922;2023-03-16T04:33:39;100840.19;;;7.64;51.71
74893;BME280;63446;56.272;43.922;2023-03-16T04:36:07;100834.13;;;7.63;51.71
74893;BME280;63446;56.272;43.922;2023-03-16T04:38:37;100835.25;;;7.67;51.68
74893;BME280;63446;56.272;43.922;2023-03-16T04:41:05;100835.56;;;7.71;51.58
74893;BME280;63446;56.272;43.922;2023-03-16T04:43:35;100826.88;;;7.70;51.50
74893;BME280;63446;56.272;43.922;2023-03-16T04:46:14;100832.16;;;7.70;51.63
74893;BME280;63446;56.272;43.922;2023-03-16T04:48:40;100840.84;;;7.71;51.68
74893;BME280;63446;56.272;43.922;2023-03-16T04:51:07;100853.75;;;7.72;51.54
74893;BME280;63446;56.272;43.922;2023-03-16T04:53:37;100850.88;;;7.74;51.53
74893;BME280;63446;56.272;43.922;2023-03-16T04:56:11;100843.88;;;7.79;51.47
74893;BME280;63446;56.272;43.922;2023-03-16T04:58:46;100855.28;;;7.85;51.19
74893;BME280;63446;56.272;43.922;2023-03-16T05:01:12;100848.84;;;7.93;51.24
74893;BME280;63446;56.272;43.922;2023-03-16T05:03:39;100861.59;;;8.01;51.05
74893;BME280;63446;56.272;43.922;2023-03-16T05:06:06;100860.63;;;8.07;51.03
74893;BME280;63446;56.272;43.922;2023-03-16T05:08:33;100864.94;;;8.13;50.87
74893;BME280;63446;56.272;43.922;2023-03-16T05:10:59;100869.47;;;8.18;50.73
74893;BME280;63446;56.272;43.922;2023-03-16T05:13:29;100876.13;;;8.20;50.70
74893;BME280;63446;56.272;43.922;2023-03-16T05:15:58;100869.81;;;8.21;50.63
74893;BME280;63446;56.272;43.922;2023-03-16T05:18:29;100889.59;;;8.24;50.58
74893;BME280;63446;56.272;43.922;2023-03-16T05:20:55;100874.84;;;8.23;50.61
74893;BME280;63446;56.272;43.922;2023-03-16T05:23:23;100862.94;;;8.20;50.41
74893;BME280;63446;56.272;43.922;2023-03-16T05:25:54;100868.75;;;8.22;50.31
74893;BME280;63446;56.272;43.922;2023-03-16T05:28:25;100861.13;;;8.21;50.32
74893;BME280;63446;56.272;43.922;2023-03-16T05:31:05;100855.84;;;8.21;50.30
74893;BME280;63446;56.272;43.922;2023-03-16T05:33:43;100855.59;;;8.22;50.21
74893;BME280;63446;56.272;43.922;2023-03-16T05:36:13;100851.47;;;8.26;50.27
74893;BME280;63446;56.272;43.922;2023-03-16T05:38:42;100854.97;;;8.32;50.21
74893;BME280;63446;56.272;43.922;2023-03-16T05:41:11;100849.44;;;8.33;50.09
74893;BME280;63446;56.272;43.922;2023-03-16T05:44:02;100845.31;;;8.38;49.97
74893;BME280;63446;56.272;43.922;2023-03-16T05:46:40;100829.34;;;8.27;49.90
74893;BME280;63446;56.272;43.922;2023-03-16T05:49:06;100850.59;;;8.38;49.96
74893;BME280;63446;56.272;43.922;2023-03-16T05:51:32;100857.00;;;8.42;49.93
74893;BME280;63446;56.272;43.922;2023-03-16T05:54:01;100850.44;;;8.44;49.88
74893;BME280;63446;56.272;43.922;2023-03-16T05:56:35;100843.09;;;8.46;49.80
74893;BME280;63446;56.272;43.922;2023-03-16T05:59:01;100844.19;;;8.50;49.76
74893;BME280;63446;56.272;43.922;2023-03-16T06:01:28;100837.72;;;8.58;49.64
74893;BME280;63446;56.272;43.922;2023-03-16T06:03:55;100842.25;;;8.63;49.37
74893;BME280;63446;56.272;43.922;2023-03-16T06:06:24;100845.38;;;8.60;49.43
74893;BME280;63446;56.272;43.922;2023-03-16T06:09:06;100839.72;;;8.51;49.48
74893;BME280;63446;56.272;43.922;2023-03-16T06:11:33;100832.00;;;8.44;49.58
74893;BME280;63446;56.272;43.922;2023-03-16T06:14:00;100831.94;;;8.39;49.82
74893;BME280;63446;56.272;43.922;2023-03-16T06:16:26;100835.25;;;8.35;49.72
74893;BME280;63446;56.272;43.922;2023-03-16T06:18:52;100835.25;;;8.35;49.69
74893;BME280;63446;56.272;43.922;2023-03-16T06:21:18;100849.44;;;8.33;49.93
74893;BME280;63446;56.272;43.922;2023-03-16T06:23:47;100842.59;;;8.32;49.85
74893;BME280;63446;56.272;43.922;2023-03-16T06:26:14;100840.44;;;8.29;49.79
74893;BME280;63446;56.272;43.922;2023-03-16T06:28:42;100828.78;;;8.25;49.88
74893;BME280;63446;56.272;43.922;2023-03-16T06:31:07;100814.59;;;8.26;49.92
74893;BME280;63446;56.272;43.922;2023-03-16T06:33:34;100820.16;;;8.30;49.76
74893;BME280;63446;56.272;43.922;2023-03-16T06:36:02;100810.75;;;8.34;49.82
74893;BME280;63446;56.272;43.922;2023-03-16T06:38:35;100809.47;;;8.37;49.76
74893;BME280;63446;56.272;43.922;2023-03-16T06:41:05;100810.38;;;8.42;49.80
74893;BME280;63446;56.272;43.922;2023-03-16T06:43:33;100802.06;;;8.50;49.70
74893;BME280;63446;56.272;43.922;2023-03-16T06:45:59;100807.69;;;8.59;49.54
74893;BME280;63446;56.272;43.922;2023-03-16T06:48:26;100799.63;;;8.66;49.47
74893;BME280;63446;56.272;43.922;2023-03-16T06:50:53;100811.00;;;8.71;49.35
74893;BME280;63446;56.272;43.922;2023-03-16T06:53:22;100820.44;;;8.67;49.47
74893;BME280;63446;56.272;43.922;2023-03-16T06:55:48;100814.84;;;8.64;49.51
74893;BME280;63446;56.272;43.922;2023-03-16T06:58:15;100810.81;;;8.56;49.41
74893;BME280;63446;56.272;43.922;2023-03-16T07:00:43;100815.13;;;8.45;49.52
74893;BME280;63446;56.272;43.922;2023-03-16T07:03:09;100806.50;;;8.33;49.79
74893;BME280;63446;56.272;43.922;2023-03-16T07:05:37;100812.84;;;8.32;49.86
74893;BME280;63446;56.272;43.922;2023-03-16T07:08:04;100806.19;;;8.29;49.98
74893;BME280;63446;56.272;43.922;2023-03-16T07:10:30;100800.16;;;8.29;49.92
74893;BME280;63446;56.272;43.922;2023-03-16T07:12:56;100796.47;;;8.30;49.79
74893;BME280;63446;56.272;43.922;2023-03-16T07:15:23;100802.47;;;8.25;50.00
74893;BME280;63446;56.272;43.922;2023-03-16T07:17:51;100790.28;;;8.19;50.01
74893;BME280;63446;56.272;43.922;2023-03-16T07:20:18;100785.97;;;8.13;50.22
74893;BME280;63446;56.272;43.922;2023-03-16T07:22:43;100804.34;;;8.08;50.22
74893;BME280;63446;56.272;43.922;2023-03-16T07:25:11;100788.44;;;8.03;50.23
74893;BME280;63446;56.272;43.922;2023-03-16T07:27:42;100789.41;;;7.97;50.35
74893;BME280;63446;56.272;43.922;2023-03-16T07:30:12;100765.56;;;7.87;50.49
74893;BME280;63446;56.272;43.922;2023-03-16T07:32:40;100731.84;;;7.83;50.56
74893;BME280;63446;56.272;43.922;2023-03-16T07:35:08;100759.19;;;7.82;50.71
74893;BME280;63446;56.272;43.922;2023-03-16T07:37:35;100772.13;;;7.84;50.68
74893;BME280;63446;56.272;43.922;2023-03-16T07:40:03;100755.84;;;7.87;50.74
74893;BME280;63446;56.272;43.922;2023-03-16T07:42:31;100775.16;;;7.93;50.75
74893;BME280;63446;56.272;43.922;2023-03-16T07:45:12;100777.84;;;7.98;50.61
74893;BME280;63446;56.272;43.922;2023-03-16T07:47:40;100786.31;;;8.00;50.57
74893;BME280;63446;56.272;43.922;2023-03-16T07:50:18;100772.59;;;7.98;50.68
74893;BME280;63446;56.272;43.922;2023-03-16T07:52:46;100777.31;;;7.96;50.67
74893;BME280;63446;56.272;43.922;2023-03-16T07:55:12;100776.75;;;7.94;50.66
74893;BME280;63446;56.272;43.922;2023-03-16T07:57:40;100777.78;;;7.93;50.62
74893;BME280;63446;56.272;43.922;2023-03-16T08:00:09;100777.84;;;7.98;50.69
74893;BME280;63446;56.272;43.922;2023-03-16T08:02:43;100785.81;;;8.03;50.60
74893;BME280;63446;56.272;43.922;2023-03-16T08:05:12;100773.53;;;8.08;50.68
74893;BME280;63446;56.272;43.922;2023-03-16T08:07:44;100771.28;;;8.17;50.52
74893;BME280;63446;56.272;43.922;2023-03-16T08:10:14;100772.88;;;8.18;50.48
74893;BME280;63446;56.272;43.922;2023-03-16T08:12:49;100761.38;;;8.24;50.37
74893;BME280;63446;56.272;43.922;2023-03-16T08:15:17;100772.75;;;8.30;50.30
74893;BME280;63446;56.272;43.922;2023-03-16T08:17:44;100782.94;;;8.38;50.15
74893;BME280;63446;56.272;43.922;2023-03-16T08:20:16;100767.72;;;8.45;50.14
74893;BME280;63446;56.272;43.922;2023-03-16T08:22:44;100762.91;;;8.59;49.97
74893;BME280;63446;56.272;43.922;2023-03-16T08:25:13;100752.50;;;8.69;49.91
74893;BME280;63446;56.272;43.922;2023-03-16T08:27:46;100768.91;;;8.76;49.88
74893;BME280;63446;56.272;43.922;2023-03-16T08:30:14;100771.59;;;8.82;49.71
74893;BME280;63446;56.272;43.922;2023-03-16T08:32:45;100764.00;;;8.85;49.74
74893;BME280;63446;56.272;43.922;2023-03-16T08:35:13;100766.88;;;8.84;49.66
74893;BME280;63446;56.272;43.922;2023-03-16T08:37:40;100750.22;;;8.78;49.63
74893;BME280;63446;56.272;43.922;2023-03-16T08:40:10;100754.69;;;8.77;49.74
74893;BME280;63446;56.272;43.922;2023-03-16T08:42:40;100741.75;;;8.76;49.66
74893;BME280;63446;56.272;43.922;2023-03-16T08:45:09;100737.00;;;8.73;49.70
74893;BME280;63446;56.272;43.922;2023-03-16T08:47:38;100735.16;;;8.73;49.57
74893;BME280;63446;56.272;43.922;2023-03-16T08:50:09;100729.09;;;8.73;49.58
74893;BME280;63446;56.272;43.922;2023-03-16T08:52:36;100725.09;;;8.70;49.53
74893;BME280;63446;56.272;43.922;2023-03-16T08:55:04;100732.13;;;8.65;49.64
74893;BME280;63446;56.272;43.922;2023-03-16T08:57:31;100739.97;;;8.60;49.66
74893;BME280;63446;56.272;43.922;2023-03-16T09:00:00;100730.69;;;8.52;49.69
74893;BME280;63446;56.272;43.922;2023-03-16T09:02:33;100724.78;;;8.45;49.87
74893;BME280;63446;56.272;43.922;2023-03-16T09:05:03;100726.88;;;8.43;49.85
74893;BME280;63446;56.272;43.922;2023-03-16T09:07:30;100718.91;;;8.38;49.97
74893;BME280;63446;56.272;43.922;2023-03-16T09:09:59;100706.22;;;8.35;49.97
74893;BME280;63446;56.272;43.922;2023-03-16T09:12:25;100712.03;;;8.37;50.14
74893;BME280;63446;56.272;43.922;2023-03-16T09:14:51;100715.25;;;8.39;49.97
74893;BME280;63446;56.272;43.922;2023-03-16T09:17:19;100731.59;;;8.41;49.98
74893;BME280;63446;56.272;43.922;2023-03-16T09:19:45;100720.97;;;8.36;50.01
74893;BME280;63446;56.272;43.922;2023-03-16T09:22:11;100718.91;;;8.38;50.00
74893;BME280;63446;56.272;43.922;2023-03-16T09:24:37;100719.13;;;8.36;49.99
74893;BME280;63446;56.272;43.922;2023-03-16T09:27:03;100719.88;;;8.31;49.99
74893;BME280;63446;56.272;43.922;2023-03-16T09:29:29;100713.25;;;8.29;50.08
74893;BME280;63446;56.272;43.922;2023-03-16T09:31:56;100728.41;;;8.22;49.97
74893;BME280;63446;56.272;43.922;2023-03-16T09:34:22;100714.91;;;8.13;50.25
74893;BME280;63446;56.272;43.922;2023-03-16T09:36:47;100709.25;;;8.04;50.39
74893;BME280;63446;56.272;43.922;2023-03-16T09:39:13;100710.53;;;8.02;50.42
74893;BME280;63446;56.272;43.922;2023-03-16T09:47:24;100739.41;;;7.97;50.58
74893;BME280;63446;56.272;43.922;2023-03-16T09:49:51;100732.06;;;7.99;50.53
74893;BME280;63446;56.272;43.922;2023-03-16T09:57:38;100733.44;;;8.01;50.50
74893;BME280;63446;56.272;43.922;2023-03-16T10:00:26;100742.91;;;8.02;50.50
74893;BME280;63446;56.272;43.922;2023-03-16T10:03:14;100744.25;;;8.05;50.49
74893;BME280;63446;56.272;43.922;2023-03-16T10:05:42;100739.53;;;8.07;50.47
74893;BME280;63446;56.272;43.922;2023-03-16T10:08:20;100741.78;;;8.15;50.53
74893;BME280;63446;56.272;43.922;2023-03-16T10:16:39;100720.53;;;8.22;50.32
74893;BME280;63446;56.272;43.922;2023-03-16T10:21:55;100734.44;;;8.17;50.39
74893;BME280;63446;56.272;43.922;2023-03-16T10:26:59;100736.84;;;8.19;50.45
74893;BME280;63446;56.272;43.922;2023-03-16T10:29:29;100743.69;;;8.20;50.47
74893;BME280;63446;56.272;43.922;2023-03-16T10:32:16;100742.31;;;8.17;50.60
74893;BME280;63446;56.272;43.922;2023-03-16T10:34:47;100741.28;;;8.18;50.66
74893;BME280;63446;56.272;43.922;2023-03-16T10:37:17;100735.69;;;8.15;50.70
74893;BME280;63446;56.272;43.922;2023-03-16T10:39:42;100747.53;;;8.12;50.92
74893;BME280;63446;56.272;43.922;2023-03-16T10:42:16;100733.56;;;8.12;50.90
74893;BME280;63446;56.272;43.922;2023-03-16T10:44:43;100723.84;;;8.12;50.81
74893;BME280;63446;56.272;43.922;2023-03-16T10:47:26;100724.88;;;8.11;50.73
74893;BME280;63446;56.272;43.922;2023-03-16T10:49:53;100729.31;;;8.11;50.82
74893;BME280;63446;56.272;43.922;2023-03-16T10:52:39;100722.25;;;8.11;50.85
74893;BME280;63446;56.272;43.922;2023-03-16T10:55:23;100714.56;;;8.10;50.91
74893;BME280;63446;56.272;43.922;2023-03-16T10:57:54;100717.28;;;8.15;50.86
74893;BME280;63446;56.272;43.922;2023-03-16T11:00:40;100713.06;;;8.14;50.82
74893;BME280;63446;56.272;43.922;2023-03-16T11:05:55;100704.97;;;8.20;50.81
74893;BME280;63446;56.272;43.922;2023-03-16T11:08:27;100703.75;;;8.28;50.71
74893;BME280;63446;56.272;43.922;2023-03-16T11:10:58;100689.06;;;8.32;50.58
74893;BME280;63446;56.272;43.922;2023-03-16T11:13:36;100704.94;;;8.37;50.57
74893;BME280;63446;56.272;43.922;2023-03-16T11:16:38;100699.75;;;8.42;50.53
74893;BME280;63446;56.272;43.922;2023-03-16T11:19:39;100710.09;;;8.49;50.40
74893;BME280;63446;56.272;43.922;2023-03-16T11:22:12;100709.06;;;8.50;50.52
74893;BME280;63446;56.272;43.922;2023-03-16T11:24:52;100710.41;;;8.52;50.51
74893;BME280;63446;56.272;43.922;2023-03-16T11:27:29;100699.84;;;8.52;50.49
74893;BME280;63446;56.272;43.922;2023-03-16T11:32:36;100703.84;;;8.55;50.37
74893;BME280;63446;56.272;43.922;2023-03-16T11:38:12;100703.16;;;8.65;50.27
74893;BME280;63446;56.272;43.922;2023-03-16T11:53:57;100697.09;;;8.91;49.95
74893;BME280;63446;56.272;43.922;2023-03-16T11:56:38;100706.91;;;8.96;49.86
74893;BME280;63446;56.272;43.922;2023-03-16T12:13:08;100696.22;;;8.80;49.81
74893;BME280;63446;56.272;43.922;2023-03-16T12:15:48;100684.63;;;8.82;49.77
74893;BME280;63446;56.272;43.922;2023-03-16T12:18:25;100691.78;;;8.86;49.77
74893;BME280;63446;56.272;43.922;2023-03-16T12:20:59;100688.41;;;8.91;49.66
74893;BME280;63446;56.272;43.922;2023-03-16T12:23:42;100687.91;;;8.94;49.58
74893;BME280;63446;56.272;43.922;2023-03-16T12:26:13;100689.78;;;8.98;49.58
74893;BME280;63446;56.272;43.922;2023-03-16T12:28:41;100687.44;;;9.02;49.53
74893;BME280;63446;56.272;43.922;2023-03-16T12:31:42;100684.06;;;9.07;49.46
74893;BME280;63446;56.272;43.922;2023-03-16T12:34:18;100674.38;;;9.12;49.35
74893;BME280;63446;56.272;43.922;2023-03-16T12:40:24;100669.72;;;9.24;49.10
74893;BME280;63446;56.272;43.922;2023-03-16T12:45:48;100668.16;;;9.28;48.92
74893;BME280;63446;56.272;43.922;2023-03-16T12:48:36;100659.47;;;9.28;48.84
74893;BME280;63446;56.272;43.922;2023-03-16T12:51:04;100651.81;;;9.26;48.82
74893;BME280;63446;56.272;43.922;2023-03-16T12:53:53;100648.63;;;9.24;48.89
74893;BME280;63446;56.272;43.922;2023-03-16T12:56:30;100648.88;;;9.23;48.90
74893;BME280;63446;56.272;43.922;2023-03-16T12:59:00;100638.56;;;9.21;49.01
74893;BME280;63446;56.272;43.922;2023-03-16T13:01:30;100635.91;;;9.16;49.03
74893;BME280;63446;56.272;43.922;2023-03-16T13:04:08;100631.63;;;9.10;48.99
74893;BME280;63446;56.272;43.922;2023-03-16T13:06:36;100627.88;;;9.01;49.06
74893;BME280;63446;56.272;43.922;2023-03-16T13:09:03;100629.41;;;8.92;49.07
74893;BME280;63446;56.272;43.922;2023-03-16T13:11:46;100622.94;;;8.77;49.36
74893;BME280;63446;56.272;43.922;2023-03-16T13:14:31;100625.75;;;8.71;49.45
74893;BME280;63446;56.272;43.922;2023-03-16T13:19:41;100626.41;;;8.56;49.68
74893;BME280;63446;56.272;43.922;2023-03-16T13:22:26;100622.06;;;8.45;49.67
74893;BME280;63446;56.272;43.922;2023-03-16T13:27:26;100612.97;;;8.30;50.06
74893;BME280;63446;56.272;43.922;2023-03-16T13:29:58;100606.00;;;8.19;50.17
74893;BME280;63446;56.272;43.922;2023-03-16T13:32:29;100608.00;;;8.12;50.49
74893;BME280;63446;56.272;43.922;2023-03-16T13:34:58;100603.19;;;8.04;50.63
74893;BME280;63446;56.272;43.922;2023-03-16T13:37:27;100608.94;;;8.01;50.72
74893;BME280;63446;56.272;43.922;2023-03-16T13:39:59;100601.47;;;7.93;50.94
74893;BME280;63446;56.272;43.922;2023-03-16T13:42:29;100605.06;;;7.87;51.01
74893;BME280;63446;56.272;43.922;2023-03-16T13:45:09;100608.44;;;7.82;50.99
74893;BME280;63446;56.272;43.922;2023-03-16T13:47:35;100608.13;;;7.78;51.09
74893;BME280;63446;56.272;43.922;2023-03-16T13:50:02;100600.47;;;7.77;51.17
74893;BME280;63446;56.272;43.922;2023-03-16T13:52:32;100595.44;;;7.75;51.37
74893;BME280;63446;56.272;43.922;2023-03-16T13:55:01;100591.22;;;7.74;51.43
74893;BME280;63446;56.272;43.922;2023-03-16T13:57:34;100587.03;;;7.73;51.48
74893;BME280;63446;56.272;43.922;2023-03-16T14:00:20;100589.09;;;7.71;51.62
74893;BME280;63446;56.272;43.922;2023-03-16T14:02:52;100591.97;;;7.70;51.53
74893;BME280;63446;56.272;43.922;2023-03-16T14:05:31;100591.09;;;7.64;51.65
74893;BME280;63446;56.272;43.922;2023-03-16T14:07:58;100592.94;;;7.64;51.63
74893;BME280;63446;56.272;43.922;2023-03-16T14:10:33;100590.88;;;7.66;51.71
74893;BME280;63446;56.272;43.922;2023-03-16T14:16:17;100595.81;;;7.62;51.74
74893;BME280;63446;56.272;43.922;2023-03-16T14:18:55;100594.22;;;7.61;51.86
74893;BME280;63446;56.272;43.922;2023-03-16T14:21:27;100598.91;;;7.59;51.92
74893;BME280;63446;56.272;43.922;2023-03-16T14:23:59;100595.72;;;7.57;52.00